Bridgetown, Barbados
Current Conditions -  °F | °C
As of 7:00 AM on Wednesday 26 Nov 2014 (Local Time) from TBPB Reporting Station
Scattered Clouds Scattered Clouds  
Wind Chill: 81°   Ceiling: Unl
Heat Index: 85°   Visibility: 6mi
Dew Point: 72°   Wind: 18mph
Humidity: 74%   Direction: 60°ENE
Pressure: 29.88"   Gusts: NA
Location:  13.11°N, 59.61°W
Report Text: TBPB 261100Z 06016KT 9999 SCT016 27/22 Q1012 NOSIG
Loading
Personal Weather Stations






























Interactive Weather Map New forecast layout! Learn more

10-Day Weather Forecast

Advertisements
Track Severe Weather on mobile